Time;durP1;ratioP1;P1;durP2;ratioP2;P2;SDS_P1;SDS_P2;PMS_P1;PMS_P2;Temp;Humidity;BMP_temperature;BMP_pressure;BME280_temperature;BME280_humidity;BME280_pressure;Samples;Min_cycle;Max_cycle;Signal;HPM_P1;HPM_P2
2023/07/20 00:00:19;;;;;;;;;;;;;;;19.76;70.06;97685.97;5015865;28;20390;-64
2023/07/20 00:03:16;;;;;;;;;;;;;;;19.81;69.94;97688.34;5027500;28;19979;-63
2023/07/20 00:06:05;;;;;;;;;;;;;;;19.82;69.56;97681.69;5026198;28;20016;-63
2023/07/20 00:08:53;;;;;;;;;;;;;;;19.79;70.17;97687.16;5022207;28;19933;-63
2023/07/20 00:11:41;;;;;;;;;;;;;;;19.76;70.39;97683.22;5024057;28;20309;-63
2023/07/20 00:14:29;;;;;;;;;;;;;;;19.80;70.85;97684.00;5021366;28;19979;-64
2023/07/20 00:17:18;;;;;;;;;;;;;;;19.82;70.61;97683.66;5023998;28;19933;-63
2023/07/20 00:20:08;;;;;;;;;;;;;;;19.83;70.29;97686.03;5024637;28;19956;-63
2023/07/20 00:22:57;;;;;;;;;;;;;;;19.83;70.23;97674.22;5024779;28;19925;-64
2023/07/20 00:25:46;;;;;;;;;;;;;;;19.79;70.11;97674.16;5023424;28;19925;-63
2023/07/20 00:28:34;;;;;;;;;;;;;;;19.72;70.18;97673.31;5023757;28;19931;-64
2023/07/20 00:31:22;;;;;;;;;;;;;;;19.75;70.38;97670.56;5022764;28;20273;-64
2023/07/20 00:34:11;;;;;;;;;;;;;;;19.74;70.50;97682.78;5024490;28;19933;-63
2023/07/20 00:37:02;;;;;;;;;;;;;;;19.79;70.00;97671.41;5017435;28;19925;-63
2023/07/20 00:39:50;;;;;;;;;;;;;;;19.81;70.13;97663.53;5019768;28;19933;-62
2023/07/20 00:42:39;;;;;;;;;;;;;;;19.66;70.38;97653.56;5026153;28;19987;-62
2023/07/20 00:45:28;;;;;;;;;;;;;;;19.69;70.22;97652.78;5020100;28;19986;-63
2023/07/20 00:48:16;;;;;;;;;;;;;;;19.68;70.57;97659.47;5028728;28;20019;-63
2023/07/20 00:51:04;;;;;;;;;;;;;;;19.64;70.86;97666.91;5023939;28;19925;-64
2023/07/20 00:53:54;;;;;;;;;;;;;;;19.51;71.14;97669.09;5025776;28;19960;-64
2023/07/20 00:56:42;;;;;;;;;;;;;;;19.62;70.76;97661.78;5019681;28;19929;-64
2023/07/20 00:59:30;;;;;;;;;;;;;;;19.61;70.94;97659.41;5024711;28;19926;-66
2023/07/20 01:02:18;;;;;;;;;;;;;;;19.58;70.64;97671.16;5020665;28;20455;-65
2023/07/20 01:05:07;;;;;;;;;;;;;;;19.61;70.57;97673.19;5023532;28;19936;-63
2023/07/20 01:07:56;;;;;;;;;;;;;;;19.65;70.51;97674.00;5026823;28;19925;-63
2023/07/20 01:10:47;;;;;;;;;;;;;;;19.66;70.63;97675.59;5024746;28;20613;-65
2023/07/20 01:13:35;;;;;;;;;;;;;;;19.67;70.59;97671.69;5025348;28;19925;-64
2023/07/20 01:16:24;;;;;;;;;;;;;;;19.67;70.56;97665.38;5017503;28;19929;-63
2023/07/20 01:19:14;;;;;;;;;;;;;;;19.60;70.63;97655.88;5021696;28;19929;-66
2023/07/20 01:22:03;;;;;;;;;;;;;;;19.58;70.57;97658.16;5028755;28;19932;-63
2023/07/20 01:25:05;;;;;;;;;;;;;;;19.63;70.41;97665.31;5020591;28;19933;-63
2023/07/20 01:28:01;;;;;;;;;;;;;;;19.62;70.52;97672.81;5032324;28;19936;-62
2023/07/20 01:30:54;;;;;;;;;;;;;;;19.59;70.63;97672.75;5013445;28;19972;-65
2023/07/20 01:33:44;;;;;;;;;;;;;;;19.63;70.58;97671.63;5029211;28;19929;-65
2023/07/20 01:36:35;;;;;;;;;;;;;;;19.61;70.68;97665.72;5013940;28;20053;-62
2023/07/20 01:39:23;;;;;;;;;;;;;;;19.57;70.34;97661.28;5024008;28;20361;-63
2023/07/20 01:42:12;;;;;;;;;;;;;;;19.56;70.42;97659.72;5025361;28;19940;-64
2023/07/20 01:45:00;;;;;;;;;;;;;;;19.50;70.79;97659.25;5021947;28;19983;-63
2023/07/20 01:47:49;;;;;;;;;;;;;;;19.50;70.55;97661.22;5020296;28;19925;-62
2023/07/20 01:50:38;;;;;;;;;;;;;;;19.52;70.66;97669.91;5021935;28;19929;-62
2023/07/20 01:53:27;;;;;;;;;;;;;;;19.50;71.01;97673.03;5023183;28;19929;-63
2023/07/20 01:56:15;;;;;;;;;;;;;;;19.40;71.42;97684.72;5017314;28;20405;-63
2023/07/20 01:59:03;;;;;;;;;;;;;;;19.47;71.13;97689.50;5020607;28;19929;-65
2023/07/20 02:05:06;;;;;;;;;;;;;;;19.41;71.53;97696.53;5039703;28;19933;-62
2023/07/20 02:07:57;;;;;;;;;;;;;;;19.39;71.72;97696.91;5023495;28;19933;-62
2023/07/20 02:10:46;;;;;;;;;;;;;;;19.38;71.69;97690.56;5029377;28;20044;-63
2023/07/20 02:13:34;;;;;;;;;;;;;;;19.26;72.45;97703.81;5024665;28;19952;-63
2023/07/20 02:16:22;;;;;;;;;;;;;;;19.28;72.50;97704.22;5027286;28;20659;-63
2023/07/20 02:19:11;;;;;;;;;;;;;;;19.33;72.20;97701.97;5026412;28;20451;-63
2023/07/20 02:21:59;;;;;;;;;;;;;;;19.32;72.39;97699.56;5024022;28;20586;-63
2023/07/20 02:24:49;;;;;;;;;;;;;;;19.36;72.30;97706.69;5023565;28;19931;-63
2023/07/20 02:27:37;;;;;;;;;;;;;;;19.32;72.56;97705.84;5023467;28;19929;-63
2023/07/20 02:30:27;;;;;;;;;;;;;;;19.34;72.11;97709.03;5008624;28;20349;-62
2023/07/20 02:33:15;;;;;;;;;;;;;;;19.35;72.10;97713.38;5024135;28;19929;-63
2023/07/20 02:36:03;;;;;;;;;;;;;;;19.26;72.14;97701.06;5025541;28;19940;-66
2023/07/20 02:38:51;;;;;;;;;;;;;;;19.30;72.47;97713.72;5019927;28;19929;-63
2023/07/20 02:41:41;;;;;;;;;;;;;;;19.27;72.56;97714.44;5022663;28;20019;-64
2023/07/20 02:44:30;;;;;;;;;;;;;;;19.30;72.40;97708.19;5036224;28;19925;-63
2023/07/20 02:47:18;;;;;;;;;;;;;;;19.25;72.63;97708.53;5024111;28;20297;-65
2023/07/20 02:50:07;;;;;;;;;;;;;;;19.24;72.64;97712.44;5011469;28;21105;-64
2023/07/20 02:52:56;;;;;;;;;;;;;;;19.18;72.90;97716.69;5016160;28;20417;-65
2023/07/20 02:55:44;;;;;;;;;;;;;;;19.29;71.67;97728.66;5023636;28;19928;-65
2023/07/20 02:58:36;;;;;;;;;;;;;;;19.26;72.26;97729.38;5025996;28;19925;-62
2023/07/20 03:01:27;;;;;;;;;;;;;;;19.24;71.91;97725.44;5013777;28;19932;-63
2023/07/20 03:04:16;;;;;;;;;;;;;;;19.10;72.80;97724.06;5031394;28;19929;-63
2023/07/20 03:07:04;;;;;;;;;;;;;;;19.06;72.96;97725.16;5025817;28;20004;-63
2023/07/20 03:09:53;;;;;;;;;;;;;;;19.14;72.44;97726.06;5023276;28;19933;-63
2023/07/20 03:12:41;;;;;;;;;;;;;;;19.15;71.86;97727.66;5025475;28;20401;-63
2023/07/20 03:15:31;;;;;;;;;;;;;;;19.04;72.30;97733.00;5010814;28;19925;-63
2023/07/20 03:18:19;;;;;;;;;;;;;;;18.92;72.28;97730.47;5030459;28;19932;-63
2023/07/20 03:21:08;;;;;;;;;;;;;;;18.94;72.50;97722.63;5018499;28;20020;-63
2023/07/20 03:23:56;;;;;;;;;;;;;;;18.89;72.74;97731.22;5027766;28;19936;-66
2023/07/20 03:26:44;;;;;;;;;;;;;;;18.88;72.77;97730.41;5017866;28;19936;-63
2023/07/20 03:29:33;;;;;;;;;;;;;;;18.75;73.20;97734.53;5035059;28;20176;-63
2023/07/20 03:32:22;;;;;;;;;;;;;;;18.78;73.16;97747.56;5018677;28;19929;-63
2023/07/20 03:35:11;;;;;;;;;;;;;;;18.87;72.61;97744.56;5033859;28;19929;-62
2023/07/20 03:37:59;;;;;;;;;;;;;;;18.84;72.59;97751.59;5028841;28;19925;-66
2023/07/20 03:40:51;;;;;;;;;;;;;;;18.84;72.36;97752.38;5040807;28;20767;-63
2023/07/20 03:43:39;;;;;;;;;;;;;;;18.81;72.52;97757.84;5028535;28;19940;-63
2023/07/20 03:46:27;;;;;;;;;;;;;;;18.86;71.96;97760.28;5021058;28;19928;-63
2023/07/20 03:49:17;;;;;;;;;;;;;;;18.86;72.12;97759.50;5035883;28;19929;-64
2023/07/20 03:52:06;;;;;;;;;;;;;;;18.86;72.29;97759.50;5024484;28;19929;-63
2023/07/20 03:54:57;;;;;;;;;;;;;;;18.86;72.16;97757.53;5024398;28;19929;-63
2023/07/20 03:57:45;;;;;;;;;;;;;;;18.91;71.61;97751.72;5025010;28;19936;-64
2023/07/20 04:00:33;;;;;;;;;;;;;;;18.87;71.41;97755.56;5024504;28;20015;-63
2023/07/20 04:03:22;;;;;;;;;;;;;;;18.87;71.38;97761.88;5028031;28;19925;-63
2023/07/20 04:06:14;;;;;;;;;;;;;;;18.75;71.50;97757.34;5023789;28;19925;-63
2023/07/20 04:09:02;;;;;;;;;;;;;;;18.77;71.61;97765.25;5021132;28;19950;-66
2023/07/20 04:11:50;;;;;;;;;;;;;;;18.76;71.65;97772.69;5032373;28;20027;-63
2023/07/20 04:14:39;;;;;;;;;;;;;;;18.66;71.31;97773.28;5031828;28;19925;-63
2023/07/20 04:17:27;;;;;;;;;;;;;;;18.67;71.63;97774.88;5035827;28;19936;-62
2023/07/20 04:20:15;;;;;;;;;;;;;;;18.76;70.95;97775.47;5023449;28;19925;-63
2023/07/20 04:23:05;;;;;;;;;;;;;;;18.82;70.86;97775.94;5028210;28;20133;-63
2023/07/20 04:25:53;;;;;;;;;;;;;;;18.83;70.27;97786.56;5023708;28;19936;-64
2023/07/20 04:28:42;;;;;;;;;;;;;;;18.84;69.58;97785.41;5029628;28;20028;-63
2023/07/20 04:31:35;;;;;;;;;;;;;;;18.86;69.35;97792.53;5016529;28;19974;-63
2023/07/20 04:34:24;;;;;;;;;;;;;;;18.93;69.49;97792.63;5034251;28;20318;-63
2023/07/20 04:37:12;;;;;;;;;;;;;;;19.01;69.04;97794.31;5020496;28;19929;-64
2023/07/20 04:40:03;;;;;;;;;;;;;;;18.93;69.21;97784.38;5031148;28;20594;-63
2023/07/20 04:42:51;;;;;;;;;;;;;;;18.96;68.83;97787.19;5025157;28;19929;-64
2023/07/20 04:45:39;;;;;;;;;;;;;;;18.97;68.82;97783.25;5035795;28;19925;-65
2023/07/20 04:48:28;;;;;;;;;;;;;;;19.02;68.61;97798.69;5022915;28;20313;-63
2023/07/20 04:51:20;;;;;;;;;;;;;;;19.01;69.07;97794.31;5029821;28;20447;-63
2023/07/20 04:54:10;;;;;;;;;;;;;;;19.03;68.19;97797.50;5024217;28;19925;-63
2023/07/20 04:57:01;;;;;;;;;;;;;;;19.11;67.61;97807.44;5018863;28;19925;-63
2023/07/20 04:59:50;;;;;;;;;;;;;;;19.15;67.75;97802.81;5022398;28;20365;-64
2023/07/20 05:02:38;;;;;;;;;;;;;;;19.13;67.64;97804.34;5024466;28;19937;-63
2023/07/20 05:05:27;;;;;;;;;;;;;;;19.10;67.62;97798.41;5022302;28;20465;-61
2023/07/20 05:08:17;;;;;;;;;;;;;;;19.15;67.29;97799.25;5021579;28;19928;-61
2023/07/20 05:11:05;;;;;;;;;;;;;;;19.20;66.67;97802.47;5033672;28;19928;-61
2023/07/20 05:13:54;;;;;;;;;;;;;;;19.25;66.18;97802.16;5019483;28;19925;-62
2023/07/20 05:16:42;;;;;;;;;;;;;;;19.24;65.71;97808.84;5016639;28;19933;-61
2023/07/20 05:19:31;;;;;;;;;;;;;;;19.30;65.55;97807.34;5022556;28;19925;-60
2023/07/20 05:22:19;;;;;;;;;;;;;;;19.31;65.72;97803.44;5018432;28;19944;-60
2023/07/20 05:25:08;;;;;;;;;;;;;;;19.24;65.19;97805.31;5035121;28;20333;-61
2023/07/20 05:27:57;;;;;;;;;;;;;;;19.34;65.46;97810.97;5022383;28;19964;-60
2023/07/20 05:30:46;;;;;;;;;;;;;;;19.21;65.47;97812.34;5014602;28;19937;-60
2023/07/20 05:33:34;;;;;;;;;;;;;;;19.19;65.02;97811.91;5023695;28;19936;-61
2023/07/20 05:36:23;;;;;;;;;;;;;;;19.19;65.92;97817.44;5021823;28;19925;-62
2023/07/20 05:39:11;;;;;;;;;;;;;;;19.20;65.17;97818.22;5016881;28;20007;-61
2023/07/20 05:42:00;;;;;;;;;;;;;;;19.10;65.28;97814.13;5019093;28;19929;-61
2023/07/20 05:44:49;;;;;;;;;;;;;;;19.08;65.48;97817.25;5021948;28;20425;-61
2023/07/20 05:47:39;;;;;;;;;;;;;;;19.06;65.91;97821.53;5025089;28;19960;-60
2023/07/20 05:50:27;;;;;;;;;;;;;;;18.92;65.93;97819.38;5026423;28;19926;-61
2023/07/20 05:53:16;;;;;;;;;;;;;;;19.02;66.10;97823.47;5023727;28;19936;-62
2023/07/20 05:56:04;;;;;;;;;;;;;;;18.87;66.32;97822.41;5017751;28;19933;-61
2023/07/20 05:58:52;;;;;;;;;;;;;;;18.90;66.56;97823.63;5017007;28;19936;-61
2023/07/20 06:01:41;;;;;;;;;;;;;;;18.90;66.36;97821.66;5011701;28;19929;-61
2023/07/20 06:04:30;;;;;;;;;;;;;;;18.95;66.08;97823.31;5021721;28;20047;-61
2023/07/20 06:07:19;;;;;;;;;;;;;;;19.02;66.08;97823.47;5013852;28;20386;-61
2023/07/20 06:10:07;;;;;;;;;;;;;;;19.03;66.07;97825.03;5032082;28;20016;-61
2023/07/20 06:12:56;;;;;;;;;;;;;;;19.13;65.66;97821.66;5026518;28;19933;-61
2023/07/20 06:15:44;;;;;;;;;;;;;;;19.22;64.16;97826.91;5024271;28;19948;-61
2023/07/20 06:18:32;;;;;;;;;;;;;;;19.26;64.40;97828.53;5020627;28;19976;-61
2023/07/20 06:21:22;;;;;;;;;;;;;;;19.18;64.17;97837.09;5008448;28;20382;-61
2023/07/20 06:24:10;;;;;;;;;;;;;;;19.25;63.68;97829.72;5014794;28;20557;-61
2023/07/20 06:26:58;;;;;;;;;;;;;;;19.19;63.71;97831.19;5018347;28;19929;-61
2023/07/20 06:29:47;;;;;;;;;;;;;;;19.17;63.52;97836.25;5016801;28;20004;-60
2023/07/20 06:32:35;;;;;;;;;;;;;;;19.23;63.33;97836.75;5023586;28;19992;-61
2023/07/20 06:35:26;;;;;;;;;;;;;;;19.25;62.91;97832.47;5037624;28;19924;-61
2023/07/20 06:38:16;;;;;;;;;;;;;;;19.33;62.13;97825.91;5026938;28;19936;-61
2023/07/20 06:41:07;;;;;;;;;;;;;;;19.33;62.36;97823.16;5023374;28;19937;-61
2023/07/20 06:44:01;;;;;;;;;;;;;;;19.45;61.76;97830.41;5027430;28;19929;-61
2023/07/20 06:46:49;;;;;;;;;;;;;;;19.60;61.31;97831.41;5016448;28;19925;-61
2023/07/20 06:49:37;;;;;;;;;;;;;;;19.67;61.24;97826.00;5033789;28;19951;-61
2023/07/20 06:52:25;;;;;;;;;;;;;;;19.66;59.66;97835.47;5016602;28;19929;-61
2023/07/20 06:55:18;;;;;;;;;;;;;;;19.65;59.88;97835.81;5022311;28;20023;-61
2023/07/20 06:58:09;;;;;;;;;;;;;;;19.47;60.04;97828.06;5019647;28;19932;-61
2023/07/20 07:00:57;;;;;;;;;;;;;;;19.55;60.29;97840.78;5013197;28;20027;-61
2023/07/20 07:03:45;;;;;;;;;;;;;;;19.57;59.85;97826.63;5024852;28;20860;-61
2023/07/20 07:06:34;;;;;;;;;;;;;;;19.67;59.46;97826.00;5023619;28;19925;-61
2023/07/20 07:09:22;;;;;;;;;;;;;;;19.83;58.38;97825.84;5027750;28;20378;-61
2023/07/20 07:12:12;;;;;;;;;;;;;;;19.88;57.62;97826.28;5018452;28;19929;-61
2023/07/20 07:15:00;;;;;;;;;;;;;;;19.94;57.20;97823.22;5022358;28;19932;-61
2023/07/20 07:17:49;;;;;;;;;;;;;;;20.00;57.08;97828.00;5022785;28;19932;-61
2023/07/20 07:20:37;;;;;;;;;;;;;;;19.97;56.50;97817.72;5015176;28;19929;-60
2023/07/20 07:23:26;;;;;;;;;;;;;;;19.98;55.63;97818.53;5017205;28;19925;-61
2023/07/20 07:26:14;;;;;;;;;;;;;;;19.96;56.08;97821.66;5018979;28;19932;-61
2023/07/20 07:29:04;;;;;;;;;;;;;;;19.95;54.92;97816.53;5016505;28;19929;-62
2023/07/20 07:31:52;;;;;;;;;;;;;;;20.09;54.59;97817.50;5015634;28;19964;-60
2023/07/20 07:34:40;;;;;;;;;;;;;;;20.07;55.26;97813.50;5015619;28;19948;-61
2023/07/20 07:37:29;;;;;;;;;;;;;;;20.15;54.35;97823.47;5017962;28;19979;-61
2023/07/20 07:40:20;;;;;;;;;;;;;;;20.11;54.25;97819.88;5014075;28;20008;-61
2023/07/20 07:43:08;;;;;;;;;;;;;;;20.12;53.94;97833.25;5018108;28;19930;-61
2023/07/20 07:45:58;;;;;;;;;;;;;;;20.03;53.23;97827.28;5015623;28;19925;-61
2023/07/20 07:48:47;;;;;;;;;;;;;;;20.07;53.24;97825.31;5016682;28;20613;-60
2023/07/20 07:51:37;;;;;;;;;;;;;;;20.16;53.37;97822.28;5017526;28;20050;-60
2023/07/20 07:54:25;;;;;;;;;;;;;;;20.18;53.55;97830.97;5016861;28;20342;-61
2023/07/20 07:57:14;;;;;;;;;;;;;;;20.27;52.64;97831.47;5017229;28;20460;-60
2023/07/20 08:00:03;;;;;;;;;;;;;;;20.27;52.88;97837.00;5025881;28;19929;-69
2023/07/20 08:02:53;;;;;;;;;;;;;;;20.30;52.74;97839.00;5019506;28;20566;-60
2023/07/20 08:05:41;;;;;;;;;;;;;;;20.32;51.29;97831.13;5014927;28;19956;-61
2023/07/20 08:08:29;;;;;;;;;;;;;;;20.43;52.15;97839.53;5019287;28;20294;-61
2023/07/20 08:11:19;;;;;;;;;;;;;;;20.41;50.62;97831.63;5024247;28;19929;-61
2023/07/20 08:14:07;;;;;;;;;;;;;;;20.44;49.80;97835.59;5014435;28;20316;-61
2023/07/20 08:16:55;;;;;;;;;;;;;;;20.56;49.89;97829.84;5019493;28;19932;-61
2023/07/20 08:19:46;;;;;;;;;;;;;;;20.59;48.64;97831.06;5025803;28;19974;-61
2023/07/20 08:22:34;;;;;;;;;;;;;;;20.68;48.74;97828.78;5023413;28;20379;-61
2023/07/20 08:25:22;;;;;;;;;;;;;;;20.59;48.66;97836.56;5041210;28;19929;-61
2023/07/20 08:28:10;;;;;;;;;;;;;;;20.67;48.94;97829.97;5018758;28;19929;-61
2023/07/20 08:30:59;;;;;;;;;;;;;;;20.73;49.60;97822.91;5018750;28;19983;-61
2023/07/20 08:33:49;;;;;;;;;;;;;;;20.57;49.64;97830.66;5027875;28;20286;-60
2023/07/20 08:36:39;;;;;;;;;;;;;;;20.50;48.97;97828.59;5020266;28;19929;-61
2023/07/20 08:39:27;;;;;;;;;;;;;;;20.55;49.27;97822.72;5020374;28;19925;-61
2023/07/20 08:42:16;;;;;;;;;;;;;;;20.54;46.88;97837.69;5032891;28;20480;-61
2023/07/20 08:45:05;;;;;;;;;;;;;;;20.48;47.50;97824.63;5024651;28;20018;-62
2023/07/20 08:47:54;;;;;;;;;;;;;;;20.42;46.81;97832.44;5022671;28;19929;-61
2023/07/20 08:50:44;;;;;;;;;;;;;;;20.47;48.57;97839.59;5016413;28;19990;-64
2023/07/20 08:53:36;;;;;;;;;;;;;;;20.41;45.64;97837.16;5018942;28;19971;-61
2023/07/20 08:56:25;;;;;;;;;;;;;;;20.54;46.00;97834.94;5021505;28;19929;-61
2023/07/20 08:59:13;;;;;;;;;;;;;;;20.70;46.91;97829.19;5022217;28;20015;-61
2023/07/20 09:02:02;;;;;;;;;;;;;;;20.72;46.87;97835.13;5021471;28;20394;-62
2023/07/20 09:04:51;;;;;;;;;;;;;;;20.71;44.68;97833.53;5023706;28;19951;-65
2023/07/20 09:07:39;;;;;;;;;;;;;;;20.66;45.73;97831.09;5025148;28;19928;-61
2023/07/20 09:10:29;;;;;;;;;;;;;;;20.74;45.04;97829.22;5031670;28;19925;-61
2023/07/20 09:13:19;;;;;;;;;;;;;;;20.77;45.31;97831.22;5019904;28;20448;-61
2023/07/20 09:16:08;;;;;;;;;;;;;;;20.83;45.31;97824.97;5023572;28;19931;-61
2023/07/20 09:18:58;;;;;;;;;;;;;;;20.80;45.11;97822.97;5027238;28;19955;-61
2023/07/20 09:21:49;;;;;;;;;;;;;;;20.89;45.48;97837.25;5021550;28;19925;-61
2023/07/20 09:24:37;;;;;;;;;;;;;;;20.91;45.67;97825.81;5026092;28;20413;-61
2023/07/20 09:27:31;;;;;;;;;;;;;;;20.95;45.14;97823.91;5025409;28;20331;-61
2023/07/20 09:30:21;;;;;;;;;;;;;;;20.79;43.46;97826.13;5016073;28;20397;-61
2023/07/20 09:33:09;;;;;;;;;;;;;;;20.79;44.25;97826.13;5023305;28;19968;-61
2023/07/20 09:36:14;;;;;;;;;;;;;;;20.93;44.60;97829.81;5022935;28;20489;-61
2023/07/20 09:39:22;;;;;;;;;;;;;;;20.95;44.46;97821.13;5031602;28;19929;-61
2023/07/20 09:42:13;;;;;;;;;;;;;;;21.01;43.95;97816.03;5025627;28;19937;-61
2023/07/20 09:45:08;;;;;;;;;;;;;;;21.16;44.52;97823.28;5023344;28;19932;-61
2023/07/20 09:47:58;;;;;;;;;;;;;;;21.29;44.75;97824.53;5021863;28;20293;-61
2023/07/20 09:50:50;;;;;;;;;;;;;;;21.25;43.45;97829.25;5020886;28;19929;-61
2023/07/20 09:53:38;;;;;;;;;;;;;;;21.29;43.64;97824.53;5027110;28;20394;-61
2023/07/20 09:56:27;;;;;;;;;;;;;;;21.29;43.10;97820.97;5018711;28;20115;-61
2023/07/20 09:59:15;;;;;;;;;;;;;;;21.19;43.88;97828.81;5031408;28;19929;-61
2023/07/20 10:02:06;;;;;;;;;;;;;;;21.11;42.09;97818.09;5018101;28;20569;-61
2023/07/20 10:04:54;;;;;;;;;;;;;;;21.16;41.69;97820.50;5024952;28;19971;-61
2023/07/20 10:07:44;;;;;;;;;;;;;;;21.18;42.21;97813.41;5044946;28;19960;-61
2023/07/20 10:10:34;;;;;;;;;;;;;;;21.24;42.38;97811.09;5034176;28;19929;-61
2023/07/20 10:13:25;;;;;;;;;;;;;;;21.28;41.88;97817.44;5020046;28;19936;-61
2023/07/20 10:16:15;;;;;;;;;;;;;;;21.32;38.17;97806.44;5020482;28;19925;-61
2023/07/20 10:19:07;;;;;;;;;;;;;;;21.43;38.36;97823.88;5023947;28;19925;-62
2023/07/20 10:22:07;;;;;;;;;;;;;;;21.48;39.59;97808.91;5025830;28;20019;-62
2023/07/20 10:24:58;;;;;;;;;;;;;;;21.52;39.51;97812.47;5023216;28;19944;-61
2023/07/20 10:27:47;;;;;;;;;;;;;;;21.48;39.36;97815.22;5027127;28;19929;-61
2023/07/20 10:30:37;;;;;;;;;;;;;;;21.53;39.60;97800.25;5019271;28;20157;-62
2023/07/20 10:33:26;;;;;;;;;;;;;;;21.56;38.97;97805.78;5023885;28;19925;-61
2023/07/20 10:36:15;;;;;;;;;;;;;;;21.55;39.30;97803.41;5022347;28;19976;-61
2023/07/20 10:39:03;;;;;;;;;;;;;;;21.52;39.14;97798.66;5023260;28;20378;-61
2023/07/20 10:41:51;;;;;;;;;;;;;;;21.50;39.10;97795.50;5021408;28;20675;-61
2023/07/20 10:44:42;;;;;;;;;;;;;;;21.51;39.56;97797.06;5018300;28;20012;-61
2023/07/20 10:47:30;;;;;;;;;;;;;;;21.57;38.98;97795.50;5026983;28;20309;-61
2023/07/20 10:50:20;;;;;;;;;;;;;;;21.56;38.24;97786.44;5026142;28;19936;-61
2023/07/20 10:53:13;;;;;;;;;;;;;;;21.66;40.02;97799.53;5028522;28;19929;-61
2023/07/20 10:56:09;;;;;;;;;;;;;;;21.75;39.93;97787.34;5021389;28;19928;-61
2023/07/20 10:58:58;;;;;;;;;;;;;;;21.80;37.33;97789.72;5031088;28;20062;-61
2023/07/20 11:01:49;;;;;;;;;;;;;;;21.81;37.72;97775.50;5015687;28;19925;-61
2023/07/20 11:04:41;;;;;;;;;;;;;;;21.87;38.45;97778.69;5018817;28;19929;-61
2023/07/20 11:07:38;;;;;;;;;;;;;;;21.92;38.36;97773.56;5022122;28;19978;-61
2023/07/20 11:10:28;;;;;;;;;;;;;;;21.92;35.54;97776.34;5021263;28;19925;-61
2023/07/20 11:13:19;;;;;;;;;;;;;;;21.90;33.67;97766.84;5024026;28;19929;-62
2023/07/20 11:16:07;;;;;;;;;;;;;;;21.87;35.59;97770.38;5011635;28;20020;-61
2023/07/20 11:18:55;;;;;;;;;;;;;;;21.89;36.30;97766.06;5026756;28;20028;-61
2023/07/20 11:21:44;;;;;;;;;;;;;;;21.92;36.30;97753.41;5024072;28;19936;-61
2023/07/20 11:24:49;;;;;;;;;;;;;;;22.03;36.75;97759.78;5030989;28;20452;-61
2023/07/20 11:27:46;;;;;;;;;;;;;;;22.03;31.72;97757.00;5020801;28;19939;-61
2023/07/20 11:30:34;;;;;;;;;;;;;;;22.05;34.54;97753.84;5019079;28;20346;-61
2023/07/20 11:33:23;;;;;;;;;;;;;;;22.15;34.40;97748.38;5022148;28;19933;-62
2023/07/20 11:36:11;;;;;;;;;;;;;;;22.13;35.07;97749.94;5019502;28;20830;-61
2023/07/20 11:39:04;;;;;;;;;;;;;;;22.08;35.37;97753.06;5026116;28;19933;-60
2023/07/20 11:41:56;;;;;;;;;;;;;;;22.12;35.45;97751.94;5020834;28;20434;-57
2023/07/20 11:44:45;;;;;;;;;;;;;;;22.25;35.30;97759.84;5018044;28;20042;-58
2023/07/20 11:47:34;;;;;;;;;;;;;;;22.21;36.80;97757.06;5018022;28;19925;-58
2023/07/20 11:50:22;;;;;;;;;;;;;;;22.25;34.75;97746.81;5020073;28;20297;-57
2023/07/20 11:53:10;;;;;;;;;;;;;;;22.30;34.88;97749.19;5026390;28;20191;-60
2023/07/20 11:55:59;;;;;;;;;;;;;;;22.36;34.33;97747.63;5039334;28;20410;-62
2023/07/20 11:58:47;;;;;;;;;;;;;;;22.39;34.03;97744.06;5023410;28;19925;-61
2023/07/20 12:01:36;;;;;;;;;;;;;;;22.46;35.72;97735.78;5022480;28;19929;-61
2023/07/20 12:04:25;;;;;;;;;;;;;;;22.49;32.32;97736.97;5024089;28;19929;-61
2023/07/20 12:07:13;;;;;;;;;;;;;;;22.50;34.46;97741.31;5025601;28;20302;-62
2023/07/20 12:10:04;;;;;;;;;;;;;;;22.47;32.26;97720.75;5023642;28;20055;-62
2023/07/20 12:12:52;;;;;;;;;;;;;;;22.55;30.91;97712.44;5028283;28;20089;-61
2023/07/20 12:15:40;;;;;;;;;;;;;;;22.62;31.27;97716.00;5022394;28;19944;-61
2023/07/20 12:18:36;;;;;;;;;;;;;;;22.69;30.91;97716.03;5037410;28;19925;-61
2023/07/20 12:21:25;;;;;;;;;;;;;;;22.75;29.80;97722.75;5023709;28;20394;-61
2023/07/20 12:24:13;;;;;;;;;;;;;;;22.76;30.28;97704.13;5022150;28;19925;-62
2023/07/20 12:27:01;;;;;;;;;;;;;;;22.77;30.57;97716.00;5024250;28;20546;-61
2023/07/20 12:29:52;;;;;;;;;;;;;;;22.76;30.54;97704.13;5023171;28;20382;-61
2023/07/20 12:32:42;;;;;;;;;;;;;;;22.83;29.49;97703.34;5023426;28;19936;-61
2023/07/20 12:35:32;;;;;;;;;;;;;;;22.92;29.55;97701.78;5025351;28;19933;-61
2023/07/20 12:38:20;;;;;;;;;;;;;;;23.00;26.88;97697.00;5024094;28;20405;-61
2023/07/20 12:41:12;;;;;;;;;;;;;;;22.94;27.49;97695.81;5030728;28;19929;-61
2023/07/20 12:44:00;;;;;;;;;;;;;;;22.89;28.96;97708.09;5017437;28;19933;-61
2023/07/20 12:46:50;;;;;;;;;;;;;;;22.93;29.25;97697.81;5016041;28;19972;-61
2023/07/20 12:49:39;;;;;;;;;;;;;;;22.92;29.49;97692.69;5020526;28;20833;-61
2023/07/20 12:52:31;;;;;;;;;;;;;;;23.06;29.37;97691.84;5020695;28;20377;-62
2023/07/20 12:55:19;;;;;;;;;;;;;;;23.06;29.84;97697.38;5028924;28;20267;-61
2023/07/20 12:58:08;;;;;;;;;;;;;;;23.11;30.03;97695.00;5023746;28;20322;-61
2023/07/20 13:00:59;;;;;;;;;;;;;;;23.08;31.47;97683.94;5017765;28;19929;-61
2023/07/20 13:03:51;;;;;;;;;;;;;;;23.07;31.57;97682.38;5027127;28;19939;-61
2023/07/20 13:06:42;;;;;;;;;;;;;;;23.12;31.04;97687.50;5025795;28;20631;-61
2023/07/20 13:09:32;;;;;;;;;;;;;;;23.09;32.55;97688.28;5031754;28;20663;-61
2023/07/20 13:12:20;;;;;;;;;;;;;;;23.13;32.75;97687.09;5024801;28;19951;-61
2023/07/20 13:15:09;;;;;;;;;;;;;;;23.05;33.29;97684.72;5019385;28;20532;-61
2023/07/20 13:17:58;;;;;;;;;;;;;;;23.10;33.46;97684.31;5027826;28;20106;-61
2023/07/20 13:20:47;;;;;;;;;;;;;;;23.08;33.60;97678.41;5028697;28;20036;-61
2023/07/20 13:23:35;;;;;;;;;;;;;;;23.05;33.36;97677.19;5025487;28;19929;-60
2023/07/20 13:26:25;;;;;;;;;;;;;;;23.09;33.24;97677.19;5023182;28;19991;-61
2023/07/20 13:29:13;;;;;;;;;;;;;;;23.11;32.86;97674.81;5017714;28;19996;-61
2023/07/20 13:32:06;;;;;;;;;;;;;;;23.13;33.52;97675.22;5023156;28;20370;-61
2023/07/20 13:34:54;;;;;;;;;;;;;;;23.18;30.25;97677.59;5023601;28;20504;-59
2023/07/20 13:37:43;;;;;;;;;;;;;;;23.13;30.55;97670.47;5028450;28;19925;-59
2023/07/20 13:40:31;;;;;;;;;;;;;;;23.16;31.64;97671.63;5026460;28;19933;-59
2023/07/20 13:43:21;;;;;;;;;;;;;;;23.20;31.68;97666.88;5024533;28;19940;-61
2023/07/20 13:46:09;;;;;;;;;;;;;;;23.23;30.59;97661.34;5019503;28;19926;-61
2023/07/20 13:49:02;;;;;;;;;;;;;;;23.33;30.51;97656.94;5023476;28;19933;-61
2023/07/20 13:51:55;;;;;;;;;;;;;;;23.40;30.94;97664.44;5020529;28;19934;-61
2023/07/20 13:54:46;;;;;;;;;;;;;;;23.41;28.90;97646.59;5018416;28;20013;-61
2023/07/20 13:57:38;;;;;;;;;;;;;;;23.42;29.94;97656.50;5020454;28;19933;-61
2023/07/20 14:00:30;;;;;;;;;;;;;;;23.28;31.31;97651.81;5025182;28;19936;-61
2023/07/20 14:03:18;;;;;;;;;;;;;;;23.17;31.19;97640.78;5020104;28;19984;-61
2023/07/20 14:06:07;;;;;;;;;;;;;;;23.21;32.05;97649.06;5022871;28;19933;-61
2023/07/20 14:08:58;;;;;;;;;;;;;;;23.20;31.38;97644.69;5018776;28;19932;-61
2023/07/20 14:11:47;;;;;;;;;;;;;;;23.22;31.11;97639.53;5027399;28;19925;-61
2023/07/20 14:14:38;;;;;;;;;;;;;;;23.27;30.80;97642.69;5023138;28;20413;-61
2023/07/20 14:17:27;;;;;;;;;;;;;;;23.20;32.49;97639.94;5029082;28;19947;-61
2023/07/20 14:20:15;;;;;;;;;;;;;;;23.23;30.82;97633.63;5022175;28;19969;-61
2023/07/20 14:23:06;;;;;;;;;;;;;;;23.25;31.19;97631.22;5024607;28;19940;-61
2023/07/20 14:25:55;;;;;;;;;;;;;;;23.26;30.37;97632.00;5022481;28;19940;-61
2023/07/20 14:28:43;;;;;;;;;;;;;;;23.22;29.21;97625.69;5033400;28;19936;-61
2023/07/20 14:31:31;;;;;;;;;;;;;;;23.23;29.48;97621.75;5021956;28;19987;-62
2023/07/20 14:34:21;;;;;;;;;;;;;;;23.29;28.73;97631.22;5020504;28;19932;-61
2023/07/20 14:37:09;;;;;;;;;;;;;;;23.49;30.30;97637.06;5021062;28;19932;-63
2023/07/20 14:39:58;;;;;;;;;;;;;;;23.37;30.69;97624.44;5022944;28;19940;-62
2023/07/20 14:42:47;;;;;;;;;;;;;;;23.31;30.78;97628.81;5017519;28;19933;-62
2023/07/20 14:45:37;;;;;;;;;;;;;;;23.33;30.98;97623.69;5019679;28;19929;-65